Time;durP1;ratioP1;P1;durP2;ratioP2;P2;SDS_P1;SDS_P2;PMS_P1;PMS_P2;Temp;Humidity;BMP_temperature;BMP_pressure;BME280_temperature;BME280_humidity;BME280_pressure;Samples;Min_cycle;Max_cycle;Signal;HPM_P1;HPM_P2
2023/05/25 00:01:54;;;;;;;18.83;6.53;;;;;;;10.23;100.00;99784.25;4935251;29;20665;-76
2023/05/25 00:04:25;;;;;;;16.37;6.87;;;;;;;10.28;100.00;99785.75;4936231;29;20205;-76
2023/05/25 00:06:54;;;;;;;15.07;6.93;;;;;;;10.23;100.00;99786.91;4931338;29;20669;-76
2023/05/25 00:09:22;;;;;;;14.70;7.60;;;;;;;10.29;100.00;99794.53;4935628;29;20212;-76
2023/05/25 00:11:51;;;;;;;17.67;7.60;;;;;;;10.28;100.00;99788.41;4944896;28;20199;-76
2023/05/25 00:14:19;;;;;;;14.47;6.90;;;;;;;10.24;100.00;99791.28;4992156;28;20223;-76
2023/05/25 00:16:50;;;;;;;18.13;7.33;;;;;;;9.94;100.00;99791.03;4991522;28;20207;-76
2023/05/25 00:19:18;;;;;;;15.63;8.50;;;;;;;10.12;100.00;99784.78;4989616;28;20214;-76
2023/05/25 00:21:48;;;;;;;13.50;7.70;;;;;;;10.11;100.00;99788.38;4987409;28;20254;-76
2023/05/25 00:24:17;;;;;;;17.73;8.10;;;;;;;10.11;100.00;99788.38;4990307;28;20235;-76
2023/05/25 00:26:48;;;;;;;13.10;7.23;;;;;;;10.19;100.00;99782.69;4991690;28;20195;-76
2023/05/25 00:29:16;;;;;;;20.50;8.23;;;;;;;10.09;100.00;99786.75;4993124;28;20199;-76
2023/05/25 00:31:45;;;;;;;22.27;9.20;;;;;;;10.01;100.00;99782.72;4989206;28;20210;-76
2023/05/25 00:34:13;;;;;;;17.73;8.60;;;;;;;10.04;100.00;99779.94;4995681;28;20203;-76
2023/05/25 00:36:42;;;;;;;19.27;8.17;;;;;;;10.12;100.00;99786.59;4990727;28;20704;-76
2023/05/25 00:39:13;;;;;;;19.80;8.13;;;;;;;10.01;100.00;99782.72;4991221;28;20265;-76
2023/05/25 00:41:44;;;;;;;17.47;8.20;;;;;;;10.06;100.00;99786.94;4988850;28;20202;-76
2023/05/25 00:44:14;;;;;;;17.60;8.20;;;;;;;9.90;100.00;99787.69;4990420;28;20242;-76
2023/05/25 00:46:47;;;;;;;16.53;7.70;;;;;;;9.85;100.00;99788.88;4992803;28;20286;-77
2023/05/25 00:49:19;;;;;;;15.77;7.50;;;;;;;9.69;100.00;99786.16;4993159;28;20202;-77
2023/05/25 00:51:48;;;;;;;14.33;7.03;;;;;;;9.86;100.00;99785.31;4992776;28;20222;-76
2023/05/25 00:54:18;;;;;;;17.80;7.80;;;;;;;9.92;100.00;99771.75;4987861;28;20201;-76
2023/05/25 00:56:50;;;;;;;14.83;7.23;;;;;;;9.88;100.00;99778.13;4988747;28;20223;-76
2023/05/25 00:59:29;;;;;;;15.37;7.80;;;;;;;9.97;100.00;99780.31;4986970;28;20210;-76
2023/05/25 01:02:02;;;;;;;18.87;8.10;;;;;;;10.17;100.00;99784.56;4992605;28;20195;-76
2023/05/25 01:04:32;;;;;;;18.37;7.57;;;;;;;9.94;100.00;99780.44;4990005;28;20195;-76
2023/05/25 01:07:02;;;;;;;17.20;8.10;;;;;;;9.83;100.00;99780.16;4993942;28;20209;-76
2023/05/25 01:09:34;;;;;;;18.77;8.27;;;;;;;9.93;100.00;99778.75;4985142;28;20199;-76
2023/05/25 01:12:04;;;;;;;18.87;7.83;;;;;;;9.62;100.00;99780.31;4992171;28;20203;-76
2023/05/25 01:14:35;;;;;;;17.93;9.03;;;;;;;9.76;100.00;99779.63;4988113;28;20222;-76
2023/05/25 01:17:05;;;;;;;19.80;8.23;;;;;;;9.81;100.00;99779.38;4934967;29;20205;-75
2023/05/25 01:19:35;;;;;;;18.33;8.53;;;;;;;9.99;100.00;99781.94;4900395;29;20667;-76
2023/05/25 01:22:15;;;;;;;24.87;8.93;;;;;;;9.70;100.00;99783.41;4930914;29;20208;-76
2023/05/25 01:24:48;;;;;;;21.60;9.70;;;;;;;9.86;100.00;99778.22;4933131;29;20340;-76
2023/05/25 01:27:26;;;;;;;24.53;9.30;;;;;;;9.87;100.00;99781.72;4934902;29;20204;-76
2023/05/25 01:29:58;;;;;;;21.20;9.70;;;;;;;9.91;100.00;99780.63;4928481;29;20218;-77
2023/05/25 01:32:27;;;;;;;18.67;9.00;;;;;;;9.86;100.00;99775.56;4932598;29;20201;-76
2023/05/25 01:34:58;;;;;;;19.53;9.00;;;;;;;9.88;100.00;99778.13;4949641;28;20273;-76
2023/05/25 01:37:28;;;;;;;20.77;9.80;;;;;;;9.73;100.00;99782.41;4989490;28;20207;-76
2023/05/25 01:39:58;;;;;;;23.73;9.40;;;;;;;9.84;100.00;99779.22;4986367;28;20210;-77
2023/05/25 01:42:26;;;;;;;20.67;9.67;;;;;;;9.82;100.00;99774.00;4986963;28;20215;-76
2023/05/25 01:44:54;;;;;;;20.53;9.73;;;;;;;9.81;100.00;99771.44;4988233;28;20669;-76
2023/05/25 01:47:32;;;;;;;25.53;9.50;;;;;;;10.03;100.00;99774.69;4990097;28;20199;-76
2023/05/25 01:50:07;;;;;;;19.93;9.10;;;;;;;9.98;100.00;99782.88;4997152;28;20229;-77
2023/05/25 01:52:45;;;;;;;18.70;9.33;;;;;;;9.87;100.00;99781.72;4991758;28;20202;-76
2023/05/25 01:55:15;;;;;;;17.27;8.83;;;;;;;9.81;100.00;99782.03;4996787;28;20219;-76
2023/05/25 01:57:49;;;;;;;22.83;11.03;;;;;;;9.64;100.00;99783.72;4986366;28;20214;-76
2023/05/25 02:00:20;;;;;;;22.37;9.90;;;;;;;9.56;100.00;99775.34;4994321;28;20242;-76
2023/05/25 02:02:50;;;;;;;24.03;9.80;;;;;;;9.62;100.00;99775.00;4991558;28;20195;-76
2023/05/25 02:05:20;;;;;;;16.97;9.63;;;;;;;9.54;100.00;99786.91;4987582;28;20228;-76
2023/05/25 02:07:52;;;;;;;25.47;10.50;;;;;;;9.55;100.00;99778.88;4988007;28;20209;-76
2023/05/25 02:10:20;;;;;;;21.30;10.60;;;;;;;9.58;100.00;99786.69;4994186;28;20199;-76
2023/05/25 02:12:49;;;;;;;28.60;11.27;;;;;;;9.63;100.00;99784.66;4988949;28;20548;-76
2023/05/25 02:15:18;;;;;;;24.67;10.03;;;;;;;9.57;100.00;99778.84;4986852;28;20214;-76
2023/05/25 02:17:47;;;;;;;21.43;10.00;;;;;;;9.64;100.00;99789.00;4989133;28;20187;-76
2023/05/25 02:20:15;;;;;;;21.80;10.97;;;;;;;9.70;100.00;99786.06;4986949;28;20259;-76
2023/05/25 02:22:43;;;;;;;18.57;9.33;;;;;;;9.89;100.00;99778.06;4987061;28;20240;-76
2023/05/25 02:25:13;;;;;;;21.13;9.80;;;;;;;9.87;100.00;99779.94;4988266;28;20227;-76
2023/05/25 02:27:42;;;;;;;22.83;10.23;;;;;;;9.67;100.00;99774.78;4990129;28;20245;-76
2023/05/25 02:30:11;;;;;;;23.00;9.77;;;;;;;9.61;100.00;99769.81;4989350;28;20199;-76
2023/05/25 02:32:40;;;;;;;19.10;9.10;;;;;;;9.66;100.00;99765.16;4941801;28;20222;-76
2023/05/25 02:35:09;;;;;;;19.97;9.80;;;;;;;9.51;100.00;99763.25;4986779;28;20194;-76
2023/05/25 02:37:38;;;;;;;20.83;10.33;;;;;;;9.15;100.00;99764.97;4992079;28;20222;-76
2023/05/25 02:40:09;;;;;;;17.70;9.00;;;;;;;9.29;100.00;99768.75;4993575;28;20195;-76
2023/05/25 02:42:39;;;;;;;22.17;10.37;;;;;;;9.18;100.00;99764.84;4986934;28;20654;-76
2023/05/25 02:45:10;;;;;;;17.47;9.93;;;;;;;9.15;100.00;99761.50;4985814;28;20199;-76
2023/05/25 02:47:39;;;;;;;25.03;10.23;;;;;;;9.36;100.00;99770.16;4990125;28;20207;-76
2023/05/25 02:50:08;;;;;;;24.20;9.53;;;;;;;9.28;100.00;99764.41;4986567;28;20625;-76
2023/05/25 02:52:36;;;;;;;16.17;10.03;;;;;;;9.22;100.00;99773.47;4985105;28;20203;-76
2023/05/25 02:55:08;;;;;;;18.17;10.03;;;;;;;9.20;100.00;99774.50;4988573;28;20195;-76
2023/05/25 02:57:38;;;;;;;20.33;9.53;;;;;;;8.93;100.00;99780.16;4987221;28;20222;-76
2023/05/25 03:00:10;;;;;;;17.70;9.37;;;;;;;9.06;100.00;99772.50;4987996;28;20290;-77
2023/05/25 03:02:39;;;;;;;18.17;9.17;;;;;;;8.96;100.00;99766.78;4983577;28;20214;-76
2023/05/25 03:05:08;;;;;;;22.13;10.00;;;;;;;9.05;100.00;99760.22;4993383;28;20671;-76
2023/05/25 03:07:36;;;;;;;16.40;9.37;;;;;;;9.12;100.00;99769.56;4985694;28;20198;-76
2023/05/25 03:10:05;;;;;;;16.87;9.43;;;;;;;9.20;100.00;99766.56;4989750;28;20206;-76
2023/05/25 03:12:33;;;;;;;18.97;9.83;;;;;;;9.20;100.00;99779.78;4990118;28;20216;-76
2023/05/25 03:15:03;;;;;;;25.23;10.43;;;;;;;9.25;100.00;99773.31;4981672;28;20347;-76
2023/05/25 03:17:32;;;;;;;22.47;9.57;;;;;;;9.22;100.00;99784.06;4988757;28;20215;-77
2023/05/25 03:20:00;;;;;;;22.53;10.60;;;;;;;9.20;100.00;99785.06;4990266;28;20191;-76
2023/05/25 03:22:29;;;;;;;20.00;10.20;;;;;;;9.11;100.00;99781.06;4986485;28;20203;-76
2023/05/25 03:24:58;;;;;;;19.70;9.43;;;;;;;9.13;100.00;99788.00;4988572;28;20259;-76
2023/05/25 03:27:26;;;;;;;16.47;10.03;;;;;;;9.00;100.00;99797.44;4990961;28;20281;-76
2023/05/25 03:29:55;;;;;;;20.07;10.20;;;;;;;8.78;100.00;99804.63;4988736;28;20203;-76
2023/05/25 03:32:25;;;;;;;22.07;10.07;;;;;;;8.68;100.00;99800.72;4992876;28;20203;-76
2023/05/25 03:34:53;;;;;;;18.30;10.30;;;;;;;8.39;100.00;99808.16;4990908;28;20278;-76
2023/05/25 03:37:22;;;;;;;21.90;11.30;;;;;;;8.53;100.00;99815.47;4992618;28;20222;-76
2023/05/25 03:39:50;;;;;;;22.47;11.70;;;;;;;8.62;100.00;99817.72;4991478;28;20202;-76
2023/05/25 03:42:18;;;;;;;22.37;10.87;;;;;;;8.70;100.00;99812.94;4986896;28;20202;-76
2023/05/25 03:44:47;;;;;;;23.17;11.23;;;;;;;8.80;100.00;99816.03;4993619;28;20203;-76
2023/05/25 03:47:16;;;;;;;20.93;10.73;;;;;;;8.85;100.00;99820.13;4990859;28;20273;-76
2023/05/25 03:49:45;;;;;;;23.73;10.47;;;;;;;8.98;100.00;99822.25;4986973;28;20202;-76
2023/05/25 03:52:14;;;;;;;23.97;10.93;;;;;;;8.96;100.00;99821.44;4990078;28;20211;-76
2023/05/25 03:54:42;;;;;;;22.00;11.03;;;;;;;8.93;100.00;99825.06;4993073;28;20227;-76
2023/05/25 03:57:11;;;;;;;26.97;12.47;;;;;;;8.76;100.00;99827.63;4993019;28;20228;-77
2023/05/25 03:59:40;;;;;;;25.03;11.73;;;;;;;8.92;100.00;99828.66;4992593;28;20245;-76
2023/05/25 04:02:08;;;;;;;23.23;11.30;;;;;;;9.01;100.00;99838.78;4990115;28;20206;-76
2023/05/25 04:04:40;;;;;;;29.83;12.47;;;;;;;8.75;100.00;99837.34;4991921;28;20205;-76
2023/05/25 04:07:10;;;;;;;24.50;13.07;;;;;;;9.00;100.00;99842.38;4947560;28;20204;-76
2023/05/25 04:09:38;;;;;;;25.80;14.53;;;;;;;9.07;100.00;99843.81;4945825;29;20715;-76
2023/05/25 04:12:07;;;;;;;28.80;14.50;;;;;;;9.29;100.00;99850.72;4950457;29;20188;-76
2023/05/25 04:14:35;;;;;;;30.13;15.07;;;;;;;9.19;100.00;99852.94;4950454;28;20276;-76
2023/05/25 04:17:04;;;;;;;29.77;15.47;;;;;;;9.35;100.00;99853.03;4949383;29;20308;-75
2023/05/25 04:19:32;;;;;;;33.27;15.83;;;;;;;9.37;100.00;99860.00;4907969;29;20215;-76
2023/05/25 04:22:01;;;;;;;29.73;14.87;;;;;;;9.43;100.00;99848.25;4952517;29;20216;-77
2023/05/25 04:24:32;;;;;;;27.70;15.07;;;;;;;9.57;100.00;99848.47;4953995;28;20219;-76
2023/05/25 04:27:01;;;;;;;25.47;14.40;;;;;;;9.59;100.00;99848.38;4976178;28;20200;-76
2023/05/25 04:29:30;;;;;;;30.50;15.07;;;;;;;9.50;100.00;99856.75;4970566;28;20259;-76
2023/05/25 04:31:59;;;;;;;31.67;16.50;;;;;;;9.52;100.00;99860.19;4968533;28;20223;-76
2023/05/25 04:34:28;;;;;;;30.67;15.63;;;;;;;9.44;100.00;99861.38;4967342;28;20195;-76
2023/05/25 04:36:56;;;;;;;28.37;16.00;;;;;;;9.54;100.00;99867.09;4971294;28;20219;-76
2023/05/25 04:39:25;;;;;;;33.30;16.83;;;;;;;9.52;100.00;99873.41;4971347;28;20204;-76
2023/05/25 04:41:56;;;;;;;30.50;16.23;;;;;;;9.62;100.00;99867.59;4970926;28;20199;-76
2023/05/25 04:44:24;;;;;;;29.53;15.70;;;;;;;9.70;100.00;99870.72;4968689;28;20210;-76
2023/05/25 04:46:54;;;;;;;29.50;15.70;;;;;;;9.68;100.00;99879.66;4973385;28;20373;-77
2023/05/25 04:49:23;;;;;;;31.57;15.37;;;;;;;9.49;100.00;99881.47;4972095;28;20290;-77
2023/05/25 04:51:52;;;;;;;25.77;15.37;;;;;;;9.52;100.00;99882.19;4968727;28;20200;-77
2023/05/25 04:54:20;;;;;;;31.07;15.73;;;;;;;9.71;100.00;99892.72;4968914;28;20212;-76
2023/05/25 04:56:49;;;;;;;29.50;15.80;;;;;;;9.74;100.00;99898.72;4970692;28;20290;-77
2023/05/25 04:59:18;;;;;;;29.27;15.30;;;;;;;9.96;100.00;99901.19;4969452;28;20204;-76
2023/05/25 05:01:49;;;;;;;35.20;15.80;;;;;;;9.96;100.00;99900.34;4966991;28;20203;-76
2023/05/25 05:04:17;;;;;;;33.93;16.73;;;;;;;9.93;100.00;99903.97;4975981;28;20208;-76
2023/05/25 05:06:46;;;;;;;35.03;16.17;;;;;;;9.88;100.00;99903.34;4968986;28;20196;-76
2023/05/25 05:09:16;;;;;;;34.13;16.83;;;;;;;9.84;100.00;99904.41;4975411;28;20243;-76
2023/05/25 05:11:44;;;;;;;32.87;17.23;;;;;;;9.89;100.00;99902.41;4970205;28;20212;-76
2023/05/25 05:14:13;;;;;;;35.30;17.73;;;;;;;9.94;100.00;99908.34;4968774;28;20206;-76
2023/05/25 05:16:43;;;;;;;34.83;17.73;;;;;;;9.89;100.00;99904.22;4969672;28;20196;-76
2023/05/25 05:19:11;;;;;;;30.83;17.40;;;;;;;9.97;100.00;99902.91;4971369;28;20227;-76
2023/05/25 05:21:39;;;;;;;36.87;18.87;;;;;;;10.05;100.00;99910.47;4975644;28;20202;-76
2023/05/25 05:24:09;;;;;;;34.13;17.50;;;;;;;9.99;100.00;99914.25;4971303;28;20300;-76
2023/05/25 05:26:39;;;;;;;35.00;17.77;;;;;;;10.04;100.00;99924.63;4989364;28;20209;-77
2023/05/25 05:29:25;;;;;;;31.30;17.77;;;;;;;10.13;100.00;99918.84;4991829;28;20203;-76
2023/05/25 05:31:56;;;;;;;32.00;17.60;;;;;;;10.18;100.00;99922.16;4987517;28;20195;-76
2023/05/25 05:34:26;;;;;;;27.57;16.73;;;;;;;10.32;100.00;99922.31;4986870;28;20278;-76
2023/05/25 05:36:55;;;;;;;33.40;16.87;;;;;;;10.38;100.00;99921.16;4991012;28;20233;-76
2023/05/25 05:39:26;;;;;;;27.43;16.50;;;;;;;10.44;100.00;99922.66;4989853;28;20207;-76
2023/05/25 05:41:55;;;;;;;29.67;16.23;;;;;;;10.60;100.00;99931.50;4991808;28;20203;-76
2023/05/25 05:44:24;;;;;;;29.73;16.03;;;;;;;10.75;100.00;99933.38;4986649;28;20202;-76
2023/05/25 05:47:00;;;;;;;28.07;15.97;;;;;;;10.82;100.00;99934.78;4994523;28;20230;-76
2023/05/25 05:49:29;;;;;;;26.70;15.30;;;;;;;10.95;100.00;99932.31;4986836;28;20355;-77
2023/05/25 05:51:58;;;;;;;31.43;16.30;;;;;;;11.09;100.00;99928.94;4957370;28;20202;-76
2023/05/25 05:54:26;;;;;;;25.80;15.97;;;;;;;11.14;100.00;99930.41;4991880;28;20195;-76
2023/05/25 05:56:55;;;;;;;27.63;14.63;;;;;;;11.24;100.00;99935.22;4994685;28;20222;-76
2023/05/25 05:59:23;;;;;;;29.17;14.57;;;;;;;11.15;100.00;99933.91;4986642;28;20234;-76
2023/05/25 06:01:52;;;;;;;29.67;14.50;;;;;;;11.19;100.00;99935.44;4987224;28;20218;-77
2023/05/25 06:04:24;;;;;;;25.83;14.27;;;;;;;11.24;100.00;99930.75;4957947;28;20199;-76
2023/05/25 06:06:52;;;;;;;36.63;23.97;;;;;;;11.38;100.00;99930.84;4989863;28;20195;-76
2023/05/25 06:09:21;;;;;;;27.87;16.47;;;;;;;11.54;100.00;99930.88;4988582;28;20211;-77
2023/05/25 06:11:49;;;;;;;28.63;14.57;;;;;;;11.60;100.00;99935.00;4987308;28;20676;-76
2023/05/25 06:14:17;;;;;;;23.90;13.27;;;;;;;11.66;100.00;99930.19;4985123;28;20201;-76
2023/05/25 06:16:45;;;;;;;23.97;13.00;;;;;;;11.75;100.00;99929.66;4994177;28;20230;-76
2023/05/25 06:19:14;;;;;;;24.07;12.40;;;;;;;11.86;100.00;99934.41;4994080;28;20258;-76
2023/05/25 06:21:44;;;;;;;25.00;12.13;;;;;;;11.94;100.00;99934.81;4983854;28;20207;-76
2023/05/25 06:24:12;;;;;;;23.77;12.53;;;;;;;11.94;100.00;99931.31;4988039;28;20313;-76
2023/05/25 06:26:41;;;;;;;22.73;12.17;;;;;;;12.04;100.00;99933.34;4986743;28;20218;-76
2023/05/25 06:29:09;;;;;;;18.07;11.40;;;;;;;12.20;100.00;99928.00;4991109;28;20254;-76
2023/05/25 06:31:37;;;;;;;18.77;10.90;;;;;;;12.22;100.00;99933.25;4982636;28;20203;-76
2023/05/25 06:34:06;;;;;;;18.47;11.00;;;;;;;12.26;100.00;99938.28;4983094;28;20726;-76
2023/05/25 06:36:34;;;;;;;20.40;10.87;;;;;;;12.40;100.00;99937.47;4987604;28;20202;-76
2023/05/25 06:39:04;;;;;;;21.90;11.43;;;;;;;12.70;100.00;99936.59;4986032;28;20223;-77
2023/05/25 06:41:32;;;;;;;18.53;10.30;;;;;;;12.61;100.00;99938.84;4990701;28;20199;-76
2023/05/25 06:44:00;;;;;;;18.50;10.07;;;;;;;12.60;100.00;99934.47;4993690;28;20205;-77
2023/05/25 06:46:29;;;;;;;17.43;10.43;;;;;;;12.58;100.00;99933.72;4989774;28;20283;-77
2023/05/25 06:48:58;;;;;;;15.27;10.87;;;;;;;12.50;100.00;99943.94;4989372;28;20214;-77
2023/05/25 06:51:27;;;;;;;21.33;9.73;;;;;;;12.39;100.00;99946.38;4993491;28;20295;-76
2023/05/25 06:53:55;;;;;;;23.40;10.37;;;;;;;12.56;100.00;99943.59;4981492;28;20203;-77
2023/05/25 06:56:26;;;;;;;21.23;10.27;;;;;;;12.54;100.00;99940.16;4990576;28;20203;-76
2023/05/25 06:58:55;;;;;;;16.37;11.20;;;;;;;12.40;100.00;99940.13;4990535;28;20233;-76
2023/05/25 07:01:24;;;;;;;19.13;11.20;;;;;;;12.45;100.00;99935.41;4985500;28;20213;-77
2023/05/25 07:03:53;;;;;;;19.40;11.33;;;;;;;12.64;100.00;99939.59;4988935;28;20257;-76
2023/05/25 07:06:21;;;;;;;18.97;10.60;;;;;;;12.69;100.00;99934.88;4983584;28;20222;-76
2023/05/25 07:08:49;;;;;;;17.77;10.37;;;;;;;12.75;100.00;99926.53;4991913;28;20191;-76
2023/05/25 07:11:19;;;;;;;21.70;11.63;;;;;;;12.80;100.00;99927.97;4989298;28;20199;-76
2023/05/25 07:13:49;;;;;;;20.30;11.37;;;;;;;12.98;100.00;99930.44;4986377;28;20226;-77
2023/05/25 07:16:17;;;;;;;19.60;10.50;;;;;;;12.86;100.00;99932.06;4990799;28;20199;-77
2023/05/25 07:18:46;;;;;;;16.70;10.20;;;;;;;12.95;100.00;99928.00;4987366;28;20245;-77
2023/05/25 07:21:14;;;;;;;19.87;10.73;;;;;;;13.07;100.00;99925.41;4993894;28;20233;-76
2023/05/25 07:23:43;;;;;;;18.20;10.00;;;;;;;13.30;100.00;99926.66;5006893;28;20281;-76
2023/05/25 07:26:11;;;;;;;20.40;10.67;;;;;;;13.13;100.00;99917.06;5008814;28;20258;-77
2023/05/25 07:28:39;;;;;;;19.60;9.77;;;;;;;13.36;100.00;99930.75;5005825;28;20209;-77
2023/05/25 07:31:11;;;;;;;13.37;9.57;;;;;;;13.48;100.00;99922.00;5013696;28;20201;-77
2023/05/25 07:33:39;;;;;;;16.40;9.97;;;;;;;13.56;100.00;99925.03;5006819;28;20206;-76
2023/05/25 07:36:08;;;;;;;18.73;9.60;;;;;;;13.74;100.00;99918.53;5009906;28;20203;-76
2023/05/25 07:38:37;;;;;;;15.40;9.70;;;;;;;13.87;100.00;99923.03;5008609;28;20218;-77
2023/05/25 07:41:06;;;;;;;19.27;10.00;;;;;;;13.63;100.00;99928.16;5008698;28;20195;-77
2023/05/25 07:43:34;;;;;;;16.90;10.50;;;;;;;13.88;100.00;99933.59;5005847;28;20208;-77
2023/05/25 07:46:02;;;;;;;18.53;10.30;;;;;;;13.86;100.00;99926.66;4911288;29;20221;-77
2023/05/25 07:48:32;;;;;;;20.83;9.53;;;;;;;14.12;100.00;99931.13;4906473;29;20237;-76
2023/05/25 07:51:01;;;;;;;16.70;8.97;;;;;;;14.30;100.00;99935.25;4914285;29;20225;-77
2023/05/25 07:53:30;;;;;;;16.37;9.40;;;;;;;14.46;100.00;99932.41;4907574;29;20201;-76
2023/05/25 07:55:58;;;;;;;14.57;8.57;;;;;;;14.50;100.00;99933.94;4909015;29;20216;-77
2023/05/25 07:58:26;;;;;;;14.63;8.97;;;;;;;14.63;100.00;99938.44;4905809;29;20289;-77
2023/05/25 08:00:55;;;;;;;19.97;9.33;;;;;;;14.73;100.00;99934.16;4910938;29;20226;-77
2023/05/25 08:03:23;;;;;;;17.17;8.70;;;;;;;14.58;100.00;99936.09;4926165;28;20253;-77
2023/05/25 08:06:13;;;;;;;16.03;8.97;;;;;;;14.54;100.00;99932.75;4984366;28;20229;-77
2023/05/25 08:08:43;;;;;;;15.07;8.97;;;;;;;14.63;100.00;99928.59;5007022;28;20195;-77
2023/05/25 08:11:12;;;;;;;18.83;9.07;;;;;;;14.89;100.00;99930.34;5003755;28;20207;-78
2023/05/25 08:13:40;;;;;;;16.27;8.73;;;;;;;15.12;100.00;99926.06;5002086;28;20595;-78
2023/05/25 08:16:09;;;;;;;16.63;8.83;;;;;;;15.31;100.00;99925.59;4987550;28;20234;-77
2023/05/25 08:18:38;;;;;;;14.77;8.00;;;;;;;15.50;100.00;99908.28;4993117;28;20198;-78
2023/05/25 08:21:06;;;;;;;13.17;7.53;;;;;;;15.31;100.00;99906.91;4987000;28;20199;-78
2023/05/25 08:23:41;;;;;;;13.13;7.43;;;;;;;15.48;100.00;99908.38;4985259;28;20558;-77
2023/05/25 08:26:10;;;;;;;17.93;8.40;;;;;;;15.10;100.00;99911.13;5012356;28;20253;-77
2023/05/25 08:29:01;;;;;;;15.97;8.57;;;;;;;15.34;100.00;99914.69;5014668;28;20195;-78
2023/05/25 08:31:31;;;;;;;13.67;7.47;;;;;;;15.62;100.00;99910.94;5011944;28;20206;-77
2023/05/25 08:34:00;;;;;;;13.87;7.03;;;;;;;15.94;100.00;99921.09;5011872;28;20203;-77
2023/05/25 08:36:28;;;;;;;11.93;6.10;;;;;;;15.71;100.00;99912.94;5007684;28;20205;-78
2023/05/25 08:38:58;;;;;;;11.70;6.83;;;;;;;15.48;100.00;99903.03;5008689;28;20215;-77
2023/05/25 08:41:27;;;;;;;14.33;6.70;;;;;;;15.55;100.00;99914.16;5010511;28;20199;-78
2023/05/25 08:43:55;;;;;;;13.30;5.87;;;;;;;15.39;100.00;99917.91;5008206;28;20277;-77
2023/05/25 08:46:30;;;;;;;14.13;6.63;;;;;;;15.51;100.00;99924.19;5010847;28;20201;-78
2023/05/25 08:49:02;;;;;;;11.87;6.43;;;;;;;15.96;100.00;99911.13;5009371;28;20656;-77
2023/05/25 08:51:35;;;;;;;13.77;6.73;;;;;;;16.20;100.00;99913.78;5011931;28;20266;-78
2023/05/25 08:54:09;;;;;;;13.20;6.90;;;;;;;16.28;100.00;99919.41;5010498;28;20194;-78
2023/05/25 08:56:44;;;;;;;14.10;7.13;;;;;;;15.98;100.00;99920.75;5004227;28;20202;-78
2023/05/25 08:59:22;;;;;;;10.97;7.10;;;;;;;16.30;100.00;99915.66;5006565;28;20296;-78
2023/05/25 09:01:56;;;;;;;11.20;6.40;;;;;;;16.17;100.00;99917.53;5009787;28;20236;-78
2023/05/25 09:04:25;;;;;;;12.93;6.20;;;;;;;16.37;100.00;99907.16;5007914;28;20213;-77
2023/05/25 09:06:54;;;;;;;11.33;6.13;;;;;;;16.74;100.00;99911.44;5011094;28;20206;-77
2023/05/25 09:09:40;;;;;;;12.37;6.10;;;;;;;16.75;100.00;99914.97;5010467;28;20203;-78
2023/05/25 09:12:09;;;;;;;12.73;6.00;;;;;;;16.84;100.00;99919.59;5009153;28;20191;-78
2023/05/25 09:14:44;;;;;;;11.87;5.80;;;;;;;16.46;100.00;99914.50;5012027;28;20225;-78
2023/05/25 09:17:14;;;;;;;9.17;5.37;;;;;;;16.97;100.00;99925.69;5011886;28;20237;-78
2023/05/25 09:19:42;;;;;;;10.13;5.30;;;;;;;16.74;100.00;99918.63;5011764;28;20245;-77
2023/05/25 09:22:11;;;;;;;8.67;4.80;;;;;;;16.74;97.41;99929.31;5013327;28;20199;-78
2023/05/25 09:24:45;;;;;;;12.73;5.60;;;;;;;17.12;98.77;99915.63;5007784;28;20222;-78
2023/05/25 09:27:18;;;;;;;10.90;5.23;;;;;;;17.31;100.00;99920.38;5008449;28;20221;-78
2023/05/25 09:29:48;;;;;;;12.33;5.10;;;;;;;17.15;100.00;99926.06;5005818;28;20198;-77
2023/05/25 09:32:17;;;;;;;12.77;4.83;;;;;;;17.16;94.36;99925.94;5005774;28;20206;-78
2023/05/25 09:34:47;;;;;;;10.17;4.30;;;;;;;17.11;92.80;99928.16;5006986;28;20208;-78
2023/05/25 09:37:17;;;;;;;8.60;4.20;;;;;;;17.48;91.65;99922.56;5007480;28;20210;-77
2023/05/25 09:39:48;;;;;;;10.50;4.97;;;;;;;17.56;94.61;99920.09;5011825;28;20218;-77
2023/05/25 09:42:17;;;;;;;11.67;5.20;;;;;;;17.62;95.79;99921.44;5011600;28;20248;-76
2023/05/25 09:44:46;;;;;;;11.30;5.43;;;;;;;17.65;97.19;99923.84;5007814;28;20273;-77
2023/05/25 09:47:15;;;;;;;8.87;4.63;;;;;;;18.20;96.08;99914.00;5007629;28;20199;-77
2023/05/25 09:49:46;;;;;;;10.43;5.27;;;;;;;18.55;89.94;99916.41;5014114;28;20245;-77
2023/05/25 09:52:15;;;;;;;10.30;4.57;;;;;;;18.27;88.30;99924.09;5010358;28;20209;-77
2023/05/25 09:54:44;;;;;;;7.63;5.20;;;;;;;18.45;89.66;99915.47;5014186;28;20660;-77
2023/05/25 09:57:15;;;;;;;9.73;5.73;;;;;;;18.30;95.42;99920.28;5010332;28;20222;-77
2023/05/25 09:59:44;;;;;;;12.27;6.27;;;;;;;18.70;93.71;99914.25;5005485;28;20272;-77
2023/05/25 10:02:12;;;;;;;8.93;5.37;;;;;;;18.50;92.90;99908.72;5008831;28;20601;-77
2023/05/25 10:04:41;;;;;;;12.57;5.37;;;;;;;18.30;90.40;99917.59;5011097;28;20199;-78
2023/05/25 10:07:09;;;;;;;10.60;5.97;;;;;;;18.21;89.00;99931.78;5005087;28;20277;-78
2023/05/25 10:09:40;;;;;;;11.80;5.20;;;;;;;18.88;81.78;99932.31;5008389;28;20199;-78
2023/05/25 10:12:10;;;;;;;14.23;5.93;;;;;;;18.95;88.46;99926.44;5013603;28;20194;-78
2023/05/25 10:14:43;;;;;;;8.73;5.10;;;;;;;18.91;87.48;99925.81;4976184;28;20517;-77
2023/05/25 10:17:14;;;;;;;8.83;4.70;;;;;;;19.01;80.73;99933.94;5010946;28;20279;-77
2023/05/25 10:19:50;;;;;;;10.27;5.07;;;;;;;19.33;79.40;99932.00;5008359;28;20665;-77
2023/05/25 10:22:21;;;;;;;10.03;4.77;;;;;;;19.62;74.86;99932.13;4973887;28;20201;-79
2023/05/25 10:24:55;;;;;;;12.10;5.50;;;;;;;19.30;79.25;99928.72;5008042;28;20222;-77
2023/05/25 10:27:25;;;;;;;9.07;5.20;;;;;;;19.30;83.06;99926.91;5007401;28;20186;-78
2023/05/25 10:29:59;;;;;;;11.10;5.10;;;;;;;19.22;82.49;99924.03;5008988;28;20254;-78
2023/05/25 10:32:28;;;;;;;11.63;4.80;;;;;;;19.83;76.29;99929.34;5006173;28;20194;-77
2023/05/25 10:35:00;;;;;;;9.80;4.90;;;;;;;20.28;72.85;99927.00;5010428;28;20701;-77
2023/05/25 10:37:30;;;;;;;9.43;5.03;;;;;;;20.66;66.52;99924.47;5007201;28;20222;-78
2023/05/25 10:40:01;;;;;;;9.57;4.87;;;;;;;20.42;68.04;99927.56;5001280;28;20198;-78
2023/05/25 10:42:30;;;;;;;10.43;5.50;;;;;;;19.55;73.45;99909.44;5009308;28;20277;-77
2023/05/25 10:45:00;;;;;;;11.17;5.57;;;;;;;19.86;71.13;99925.53;5008545;28;20549;-77
2023/05/25 10:47:31;;;;;;;11.87;5.20;;;;;;;20.20;70.29;99920.63;5008240;28;20228;-78
2023/05/25 10:50:01;;;;;;;11.27;5.07;;;;;;;20.36;69.96;99914.66;5003022;28;20202;-78
2023/05/25 10:52:31;;;;;;;10.07;5.43;;;;;;;20.70;70.59;99907.88;5009127;28;20209;-78
2023/05/25 10:55:03;;;;;;;8.40;5.33;;;;;;;20.40;67.89;99916.94;5013618;28;20204;-77
2023/05/25 10:57:32;;;;;;;8.87;4.67;;;;;;;20.51;64.79;99911.44;5009432;28;20195;-77
2023/05/25 11:00:07;;;;;;;8.68;4.85;;;;;;;20.11;64.40;99906.19;5010331;28;20195;-78
2023/05/25 11:02:50;;;;;;;8.50;4.30;;;;;;;19.96;59.84;99907.56;5010854;28;20276;-77
2023/05/25 11:05:32;;;;;;;9.10;4.67;;;;;;;20.48;61.79;99911.75;5015578;28;20225;-76
2023/05/25 11:08:02;;;;;;;9.18;4.38;;;;;;;20.88;64.37;99896.34;5007138;28;20198;-78
2023/05/25 11:10:53;;;;;;;9.70;4.50;;;;;;;20.88;61.67;99901.75;5006806;28;20198;-78
2023/05/25 11:13:23;;;;;;;9.10;4.50;;;;;;;20.69;59.85;99906.19;5008470;28;20206;-77
2023/05/25 11:16:16;;;;;;;12.87;4.90;;;;;;;21.39;58.88;99896.75;5009491;28;20194;-77
2023/05/25 11:18:49;;;;;;;8.40;5.07;;;;;;;21.35;62.00;99910.69;5010369;28;20222;-77
2023/05/25 11:21:22;;;;;;;9.67;4.90;;;;;;;21.14;59.34;99895.56;5009987;28;20214;-78
2023/05/25 11:23:56;;;;;;;10.33;5.00;;;;;;;20.72;58.99;99897.81;5004434;28;20205;-78
2023/05/25 11:26:28;;;;;;;9.27;5.60;;;;;;;21.08;59.37;99898.84;5010541;28;20194;-78
2023/05/25 11:28:57;;;;;;;9.00;5.07;;;;;;;21.41;58.99;99893.91;5007771;28;20210;-77
2023/05/25 11:31:32;;;;;;;8.60;5.37;;;;;;;22.49;54.30;99893.91;5006772;28;20258;-78
2023/05/25 11:34:11;;;;;;;10.73;6.13;;;;;;;21.68;57.70;99893.91;5005977;28;20213;-78